createdAt,value
2017-11-26T00:01:15.063Z,8.07
2017-11-26T00:03:43.559Z,9.23
2017-11-26T00:06:11.934Z,9.15
2017-11-26T00:08:40.299Z,8.15
2017-11-26T00:11:08.751Z,6.35
2017-11-26T00:13:37.118Z,8.05
2017-11-26T00:16:05.504Z,8.00
2017-11-26T00:18:34.060Z,8.40
2017-11-26T00:21:03.208Z,8.30
2017-11-26T00:23:31.587Z,7.68
2017-11-26T00:26:00.187Z,7.87
2017-11-26T00:28:28.610Z,7.53
2017-11-26T00:30:56.982Z,8.35
2017-11-26T00:33:25.922Z,8.00
2017-11-26T00:35:54.355Z,6.93
2017-11-26T00:38:22.740Z,6.75
2017-11-26T00:40:51.238Z,7.57
2017-11-26T00:43:19.631Z,8.02
2017-11-26T00:45:48.012Z,6.30
2017-11-26T00:48:16.506Z,6.30
2017-11-26T00:50:44.874Z,7.25
2017-11-26T00:53:13.238Z,6.10
2017-11-26T00:55:41.651Z,6.97
2017-11-26T00:58:10.067Z,6.28
2017-11-26T01:00:38.452Z,7.30
2017-11-26T01:03:07.194Z,7.03
2017-11-26T01:05:35.559Z,6.95
2017-11-26T01:08:03.944Z,7.72
2017-11-26T01:10:32.465Z,8.90
2017-11-26T01:13:01.594Z,7.60
2017-11-26T01:15:29.966Z,7.53
2017-11-26T01:17:58.667Z,8.73
2017-11-26T01:20:27.039Z,9.05
2017-11-26T01:22:55.410Z,9.07
2017-11-26T01:25:23.906Z,11.02
2017-11-26T01:27:52.289Z,10.70
2017-11-26T01:30:20.656Z,9.90
2017-11-26T01:32:49.078Z,10.60
2017-11-26T01:35:18.233Z,10.77
2017-11-26T01:37:46.616Z,9.95
2017-11-26T01:40:15.111Z,9.52
2017-11-26T01:42:43.487Z,10.73
2017-11-26T01:45:11.864Z,10.45
2017-11-26T01:47:40.422Z,11.10
2017-11-26T01:50:08.804Z,12.57
2017-11-26T01:52:37.184Z,11.27
2017-11-26T01:55:05.686Z,11.05
2017-11-26T01:57:34.060Z,12.40
2017-11-26T02:00:02.457Z,12.30
2017-11-26T02:02:30.977Z,12.35
2017-11-26T02:04:59.356Z,11.32
2017-11-26T02:07:27.792Z,12.98
2017-11-26T02:09:57.108Z,14.13
2017-11-26T02:12:25.486Z,12.15
2017-11-26T02:14:53.890Z,13.15
2017-11-26T02:17:22.507Z,12.70
2017-11-26T02:19:50.886Z,12.05
2017-11-26T02:22:19.328Z,12.48
2017-11-26T02:24:48.154Z,10.57
2017-11-26T02:27:17.043Z,12.80
2017-11-26T02:29:45.869Z,12.45
2017-11-26T02:32:32.951Z,10.77
2017-11-26T02:35:19.288Z,11.90
2017-11-26T02:37:48.163Z,13.10
2017-11-26T02:40:17.031Z,12.02
2017-11-26T02:42:45.860Z,12.20
2017-11-26T02:45:14.350Z,11.85
2017-11-26T02:47:44.066Z,12.05
2017-11-26T02:50:13.774Z,10.95
2017-11-26T02:52:42.941Z,11.15
2017-11-26T02:55:11.333Z,11.35
2017-11-26T02:57:39.924Z,12.50
2017-11-26T03:00:09.069Z,12.48
2017-11-26T03:02:37.439Z,12.82
2017-11-26T03:05:05.841Z,12.10
2017-11-26T03:07:34.234Z,12.32
2017-11-26T03:10:02.622Z,12.25
2017-11-26T03:12:31.269Z,12.93
2017-11-26T03:14:59.665Z,12.35
2017-11-26T03:17:28.038Z,14.73
2017-11-26T03:19:56.459Z,12.52
2017-11-26T03:22:25.703Z,13.27
2017-11-26T03:24:54.080Z,12.77
2017-11-26T03:27:22.517Z,13.27
2017-11-26T03:29:51.689Z,13.30
2017-11-26T03:32:20.075Z,11.70
2017-11-26T03:34:48.642Z,13.18
2017-11-26T03:37:17.020Z,12.88
2017-11-26T03:39:45.431Z,12.63
2017-11-26T03:42:14.643Z,12.45
2017-11-26T03:44:43.778Z,12.82
2017-11-26T03:47:12.161Z,13.13
2017-11-26T03:49:40.663Z,13.13
2017-11-26T03:52:09.104Z,13.75
2017-11-26T03:54:37.486Z,12.80
2017-11-26T03:57:05.898Z,12.48
2017-11-26T03:59:34.271Z,14.48
2017-11-26T04:02:02.647Z,13.55
2017-11-26T04:04:31.073Z,15.10
2017-11-26T04:07:00.229Z,15.00
2017-11-26T04:09:28.603Z,14.70
2017-11-26T04:11:57.377Z,16.20
2017-11-26T04:14:25.756Z,15.00
2017-11-26T04:16:54.128Z,14.23
2017-11-26T04:19:22.555Z,13.75
2017-11-26T04:21:51.699Z,14.55
2017-11-26T04:24:20.112Z,13.57
2017-11-26T04:26:48.522Z,13.23
2017-11-26T04:29:17.661Z,13.70
2017-11-26T04:31:46.037Z,12.48
2017-11-26T04:34:14.549Z,11.63
2017-11-26T04:36:42.934Z,11.93
2017-11-26T04:39:11.320Z,11.60
2017-11-26T04:41:39.731Z,12.48
2017-11-26T04:44:08.103Z,13.05
2017-11-26T04:46:36.480Z,10.60
2017-11-26T04:49:05.186Z,12.90
2017-11-26T04:51:33.581Z,13.27
2017-11-26T04:54:02.777Z,12.52
2017-11-26T04:56:31.245Z,13.27
2017-11-26T04:58:59.625Z,11.98
2017-11-26T05:01:28.004Z,12.13
2017-11-26T05:03:56.529Z,11.40
2017-11-26T05:06:24.908Z,11.30
2017-11-26T05:08:53.275Z,11.05
2017-11-26T05:11:21.943Z,11.65
2017-11-26T05:13:50.323Z,11.25
2017-11-26T05:16:18.695Z,9.93
2017-11-26T05:18:47.472Z,11.75
2017-11-26T05:21:15.853Z,9.27
2017-11-26T05:23:44.238Z,9.70
2017-11-26T05:26:12.734Z,9.50
2017-11-26T05:28:41.094Z,8.65
2017-11-26T05:31:09.460Z,9.30
2017-11-26T05:33:37.871Z,8.85
2017-11-26T05:36:07.035Z,9.05
2017-11-26T05:38:35.415Z,8.82
2017-11-26T05:41:03.889Z,8.57
2017-11-26T05:43:32.325Z,7.95
2017-11-26T05:46:00.760Z,8.75
2017-11-26T05:48:29.330Z,8.48
2017-11-26T05:50:57.819Z,7.90
2017-11-26T05:53:29.509Z,8.43
2017-11-26T05:55:58.183Z,9.32
2017-11-26T05:58:26.551Z,8.05
2017-11-26T06:00:55.943Z,8.80
2017-11-26T06:03:24.331Z,8.77
2017-11-26T06:05:52.695Z,8.02
2017-11-26T06:08:21.897Z,7.72
2017-11-26T06:10:50.330Z,7.03
2017-11-26T06:13:19.680Z,7.32
2017-11-26T06:15:48.182Z,7.40
2017-11-26T06:18:16.565Z,7.03
2017-11-26T06:20:45.031Z,6.30
2017-11-26T06:23:14.444Z,6.82
2017-11-26T06:25:42.853Z,6.50
2017-11-26T06:28:12.091Z,6.43
2017-11-26T06:30:40.636Z,5.68
2017-11-26T06:33:09.851Z,5.70
2017-11-26T06:35:38.237Z,5.15
2017-11-26T06:38:06.894Z,5.00
2017-11-26T06:40:36.363Z,5.45
2017-11-26T06:43:04.744Z,5.85
2017-11-26T06:45:33.387Z,5.10
2017-11-26T06:48:01.759Z,5.32
2017-11-26T06:50:30.123Z,5.40
2017-11-26T06:52:59.686Z,8.15
2017-11-26T06:55:28.163Z,6.45
2017-11-26T06:57:56.585Z,4.82
2017-11-26T07:00:25.848Z,5.45
2017-11-26T07:02:54.246Z,5.37
2017-11-26T07:05:22.634Z,7.57
2017-11-26T07:07:51.132Z,5.00
2017-11-26T07:10:20.275Z,4.72
2017-11-26T07:12:48.653Z,4.53
2017-11-26T07:15:17.275Z,4.40
2017-11-26T07:17:45.636Z,5.53
2017-11-26T07:20:14.030Z,5.50
2017-11-26T07:22:42.690Z,6.15
2017-11-26T07:25:11.047Z,6.15
2017-11-26T07:27:39.449Z,4.75
2017-11-26T07:30:08.011Z,5.70
2017-11-26T07:32:36.429Z,5.95
2017-11-26T07:35:04.838Z,6.15
2017-11-26T07:37:34.274Z,6.37
2017-11-26T07:40:02.698Z,5.05
2017-11-26T07:42:31.068Z,5.57
2017-11-26T07:44:59.632Z,4.50
2017-11-26T07:47:28.018Z,4.00
2017-11-26T07:49:56.382Z,3.95
2017-11-26T07:52:24.894Z,3.12
2017-11-26T07:54:53.360Z,4.12
2017-11-26T07:57:22.576Z,3.45
2017-11-26T07:59:51.163Z,4.00
2017-11-26T08:02:20.298Z,3.30
2017-11-26T08:04:48.883Z,3.60
2017-11-26T08:07:17.337Z,4.00
2017-11-26T08:09:46.577Z,3.25
2017-11-26T08:12:14.941Z,3.58
2017-11-26T08:14:43.835Z,2.90
2017-11-26T08:17:12.259Z,3.05
2017-11-26T08:19:40.686Z,3.92
2017-11-26T08:22:09.432Z,3.53
2017-11-26T08:24:37.808Z,3.60
2017-11-26T08:27:06.173Z,3.33
2017-11-26T08:29:34.902Z,3.30
2017-11-26T08:32:03.296Z,2.78
2017-11-26T08:34:31.747Z,2.55
2017-11-26T08:37:01.225Z,3.28
2017-11-26T08:39:30.484Z,2.70
2017-11-26T08:41:58.859Z,3.03
2017-11-26T08:44:45.724Z,3.35
2017-11-26T08:47:14.352Z,3.37
2017-11-26T08:49:43.039Z,3.10
2017-11-26T08:52:11.404Z,3.10
2017-11-26T08:54:39.794Z,3.35
2017-11-26T08:57:08.479Z,3.30
2017-11-26T08:59:36.882Z,3.22
2017-11-26T09:02:05.246Z,3.30
2017-11-26T09:04:33.674Z,2.65
2017-11-26T09:07:06.771Z,2.87
2017-11-26T09:09:34.916Z,2.58
2017-11-26T09:12:03.349Z,3.25
2017-11-26T09:14:31.735Z,3.80
2017-11-26T09:17:00.296Z,3.80
2017-11-26T09:19:29.448Z,3.33
2017-11-26T09:21:57.828Z,3.40
2017-11-26T09:24:26.561Z,3.65
2017-11-26T09:26:54.928Z,3.45
2017-11-26T09:29:24.862Z,3.80
2017-11-26T09:31:53.362Z,3.70
2017-11-26T09:34:21.720Z,3.75
2017-11-26T09:36:50.084Z,3.67
2017-11-26T09:39:19.412Z,3.80
2017-11-26T09:41:47.835Z,3.75
2017-11-26T09:44:16.203Z,4.07
2017-11-26T09:46:44.862Z,3.30
2017-11-26T09:49:13.236Z,2.70
2017-11-26T09:51:41.602Z,4.05
2017-11-26T09:54:10.396Z,2.60
2017-11-26T09:56:38.790Z,2.58
2017-11-26T09:59:07.180Z,3.95
2017-11-26T10:01:35.597Z,3.03
2017-11-26T10:04:04.789Z,3.25
2017-11-26T10:06:33.264Z,3.00
2017-11-26T10:09:01.897Z,3.47
2017-11-26T10:11:30.276Z,2.70
2017-11-26T10:13:58.660Z,2.80
2017-11-26T10:16:27.475Z,2.90
2017-11-26T10:18:55.843Z,3.62
2017-11-26T10:21:24.330Z,4.35
2017-11-26T10:23:52.765Z,3.62
2017-11-26T10:26:21.165Z,3.10
2017-11-26T10:28:49.859Z,2.62
2017-11-26T10:31:18.330Z,3.30
2017-11-26T10:33:46.715Z,3.35
2017-11-26T10:36:15.478Z,3.40
2017-11-26T10:38:44.018Z,2.67
2017-11-26T10:41:12.409Z,2.47
2017-11-26T10:43:41.412Z,2.97
2017-11-26T10:46:11.082Z,2.30
2017-11-26T10:48:39.882Z,2.83
2017-11-26T10:51:10.697Z,2.72
2017-11-26T10:53:40.159Z,2.42
2017-11-26T10:56:08.832Z,2.90
2017-11-26T10:58:38.235Z,3.08
2017-11-26T11:01:08.061Z,3.17
2017-11-26T11:03:36.442Z,2.15
2017-11-26T11:06:05.195Z,2.55
2017-11-26T11:08:34.252Z,2.30
2017-11-26T11:11:02.762Z,1.85
2017-11-26T11:13:31.751Z,2.12
2017-11-26T11:16:00.418Z,2.53
2017-11-26T11:18:28.979Z,2.25
2017-11-26T11:20:57.479Z,2.25
2017-11-26T11:23:25.997Z,1.90
2017-11-26T11:25:55.204Z,1.52
2017-11-26T11:28:23.703Z,3.30
2017-11-26T11:30:52.148Z,1.95
2017-11-26T11:33:20.609Z,2.55
2017-11-26T11:35:49.216Z,2.33
2017-11-26T11:38:18.051Z,2.75
2017-11-26T11:40:46.883Z,2.72
2017-11-26T11:43:15.619Z,3.42
2017-11-26T11:45:44.451Z,1.98
2017-11-26T11:48:12.947Z,2.75
2017-11-26T11:50:41.365Z,2.40
2017-11-26T11:53:10.276Z,2.33
2017-11-26T11:55:39.239Z,3.37
2017-11-26T11:58:07.921Z,2.58
2017-11-26T12:00:37.574Z,2.90
2017-11-26T12:03:06.019Z,2.90
2017-11-26T12:05:34.401Z,2.53
2017-11-26T12:08:02.964Z,3.42
2017-11-26T12:10:32.145Z,2.92
2017-11-26T12:13:00.521Z,2.60
2017-11-26T12:15:29.084Z,3.08
2017-11-26T12:17:57.493Z,3.00
2017-11-26T12:20:26.657Z,3.10
2017-11-26T12:22:55.550Z,3.22
2017-11-26T12:25:26.130Z,2.40
2017-11-26T12:27:55.008Z,2.67
2017-11-26T12:30:23.958Z,4.20
2017-11-26T12:32:53.155Z,2.85
2017-11-26T12:35:22.137Z,2.97
2017-11-26T12:37:51.955Z,3.90
2017-11-26T12:40:21.865Z,2.83
2017-11-26T12:42:51.691Z,2.78
2017-11-26T12:45:21.519Z,3.10
2017-11-26T12:47:51.493Z,2.90
2017-11-26T12:50:21.564Z,2.25
2017-11-26T12:52:52.127Z,2.70
2017-11-26T12:55:21.945Z,2.40
2017-11-26T12:57:51.442Z,2.70
2017-11-26T13:00:21.251Z,2.10
2017-11-26T13:02:51.387Z,2.30
2017-11-26T13:05:21.346Z,4.95
2017-11-26T13:07:50.718Z,2.15
2017-11-26T13:10:21.519Z,3.05
2017-11-26T13:12:51.704Z,2.80
2017-11-26T13:15:20.526Z,2.65
2017-11-26T13:17:50.645Z,2.58
2017-11-26T13:20:20.622Z,2.00
2017-11-26T13:22:51.120Z,3.20
2017-11-26T13:25:21.280Z,3.20
2017-11-26T13:27:51.139Z,3.58
2017-11-26T13:30:20.343Z,2.60
2017-11-26T13:32:50.265Z,2.33
2017-11-26T13:35:19.458Z,2.70
2017-11-26T13:37:48.711Z,2.95
2017-11-26T13:40:20.289Z,3.30
2017-11-26T13:42:49.464Z,1.90
2017-11-26T13:45:18.059Z,3.10
2017-11-26T13:47:48.789Z,3.20
2017-11-26T13:50:17.390Z,2.20
2017-11-26T13:52:47.018Z,2.20
2017-11-26T13:55:15.648Z,2.35
2017-11-26T13:57:44.861Z,2.67
2017-11-26T14:00:14.260Z,2.08
2017-11-26T14:02:43.296Z,2.37
2017-11-26T14:05:12.247Z,2.30
2017-11-26T14:07:41.393Z,2.20
2017-11-26T14:10:10.592Z,2.22
2017-11-26T14:12:39.917Z,2.22
2017-11-26T14:15:09.588Z,2.50
2017-11-26T14:17:38.069Z,2.50
2017-11-26T14:20:06.873Z,2.80
2017-11-26T14:22:35.866Z,2.97
2017-11-26T14:25:05.619Z,3.75
2017-11-26T14:27:34.025Z,3.17
2017-11-26T14:30:05.349Z,2.37
2017-11-26T14:32:36.324Z,2.90
2017-11-26T14:35:06.508Z,2.70
2017-11-26T14:37:38.875Z,2.72
2017-11-26T14:40:10.670Z,3.12
2017-11-26T14:42:39.248Z,3.22
2017-11-26T14:45:07.705Z,3.05
2017-11-26T14:47:36.649Z,2.97
2017-11-26T14:50:05.822Z,2.90
2017-11-26T14:52:36.341Z,2.58
2017-11-26T14:55:05.950Z,2.35
2017-11-26T14:57:35.904Z,2.67
2017-11-26T15:00:05.801Z,2.95
2017-11-26T15:02:35.426Z,2.95
2017-11-26T15:05:05.371Z,2.50
2017-11-26T15:07:36.319Z,2.50
2017-11-26T15:10:06.713Z,2.70
2017-11-26T15:12:36.515Z,3.20
2017-11-26T15:15:06.743Z,3.70
2017-11-26T15:17:35.827Z,4.37
2017-11-26T15:20:04.771Z,4.28
2017-11-26T15:22:33.631Z,5.57
2017-11-26T15:25:03.165Z,5.30
2017-11-26T15:27:31.980Z,5.50
2017-11-26T15:30:01.136Z,4.53
2017-11-26T15:32:30.765Z,34.72
2017-11-26T15:34:59.667Z,12.05
2017-11-26T15:37:28.943Z,8.60
2017-11-26T15:39:57.829Z,8.30
2017-11-26T15:42:26.724Z,5.75
2017-11-26T15:44:55.236Z,5.50
2017-11-26T15:47:24.146Z,6.65
2017-11-26T15:49:52.821Z,6.00
2017-11-26T15:52:21.720Z,5.37
2017-11-26T15:54:50.608Z,9.60
2017-11-26T15:57:19.539Z,4.53
2017-11-26T15:59:48.745Z,12.30
2017-11-26T16:02:17.888Z,4.32
2017-11-26T16:04:47.052Z,3.95
2017-11-26T16:07:15.667Z,4.87
2017-11-26T16:09:44.071Z,4.78
2017-11-26T16:12:12.740Z,5.30
2017-11-26T16:14:41.427Z,2.95
2017-11-26T16:17:10.071Z,2.03
2017-11-26T16:19:38.874Z,1.60
2017-11-26T16:22:08.140Z,2.10
2017-11-26T16:24:37.459Z,1.98
2017-11-26T16:27:06.366Z,2.50
2017-11-26T16:29:35.585Z,3.50
2017-11-26T16:32:04.898Z,2.65
2017-11-26T16:34:34.638Z,2.05
2017-11-26T16:37:03.456Z,3.33
2017-11-26T16:39:33.111Z,2.42
2017-11-26T16:42:03.575Z,2.70
2017-11-26T16:44:32.352Z,1.98
2017-11-26T16:47:01.062Z,2.78
2017-11-26T16:49:29.745Z,1.87
2017-11-26T16:51:58.363Z,2.75
2017-11-26T16:54:28.041Z,1.98
2017-11-26T16:56:57.295Z,3.17
2017-11-26T16:59:26.019Z,2.53
2017-11-26T17:01:54.563Z,3.00
2017-11-26T17:04:24.118Z,2.70
2017-11-26T17:06:53.135Z,2.78
2017-11-26T17:09:22.018Z,3.12
2017-11-26T17:11:50.890Z,3.25
2017-11-26T17:14:19.525Z,4.35
2017-11-26T17:16:48.914Z,3.80
2017-11-26T17:19:17.712Z,3.53
2017-11-26T17:21:46.612Z,4.70
2017-11-26T17:24:16.139Z,4.60
2017-11-26T17:26:45.942Z,4.95
2017-11-26T17:29:14.739Z,5.32
2017-11-26T17:31:43.433Z,5.55
2017-11-26T17:34:13.051Z,6.35
2017-11-26T17:36:41.948Z,5.75
2017-11-26T17:39:10.459Z,6.85
2017-11-26T17:41:39.087Z,6.85
2017-11-26T17:44:07.780Z,6.65
2017-11-26T17:46:36.287Z,6.70
2017-11-26T17:49:04.928Z,7.32
2017-11-26T17:51:34.343Z,8.70
2017-11-26T17:54:02.793Z,12.05
2017-11-26T17:56:31.859Z,13.50
2017-11-26T17:59:00.273Z,10.02
2017-11-26T18:01:28.894Z,8.20
2017-11-26T18:03:57.848Z,7.72
2017-11-26T18:06:27.624Z,7.12
2017-11-26T18:08:56.385Z,6.25
2017-11-26T18:11:25.474Z,8.35
2017-11-26T18:13:54.611Z,8.93
2017-11-26T18:16:25.331Z,7.28
2017-11-26T18:18:54.291Z,7.82
2017-11-26T18:21:23.136Z,7.62
2017-11-26T18:23:52.946Z,7.90
2017-11-26T18:26:22.027Z,8.07
2017-11-26T18:28:51.664Z,7.93
2017-11-26T18:31:22.263Z,7.72
2017-11-26T18:33:51.244Z,7.90
2017-11-26T18:36:19.932Z,10.38
2017-11-26T18:38:48.909Z,8.32
2017-11-26T18:41:17.704Z,6.75
2017-11-26T18:43:46.298Z,8.02
2017-11-26T18:46:15.548Z,7.20
2017-11-26T18:48:44.081Z,7.35
2017-11-26T18:51:12.823Z,8.60
2017-11-26T18:53:41.836Z,7.03
2017-11-26T18:56:10.655Z,7.95
2017-11-26T18:58:39.441Z,8.10
2017-11-26T19:01:08.631Z,8.05
2017-11-26T19:03:38.482Z,7.53
2017-11-26T19:06:08.790Z,7.78
2017-11-26T19:08:38.752Z,7.75
2017-11-26T19:11:07.584Z,10.18
2017-11-26T19:13:37.902Z,7.82
2017-11-26T19:16:07.512Z,7.47
2017-11-26T19:18:37.285Z,11.07
2017-11-26T19:21:06.226Z,7.40
2017-11-26T19:23:36.410Z,7.30
2017-11-26T19:26:05.446Z,6.10
2017-11-26T19:28:35.880Z,6.10
2017-11-26T19:31:05.744Z,6.43
2017-11-26T19:33:34.968Z,6.15
2017-11-26T19:36:04.877Z,6.15
2017-11-26T19:38:34.602Z,6.70
2017-11-26T19:41:04.823Z,6.80
2017-11-26T19:43:33.796Z,7.47
2017-11-26T19:46:02.409Z,7.07
2017-11-26T19:48:31.796Z,5.95
2017-11-26T19:51:01.396Z,6.45
2017-11-26T19:53:31.905Z,6.55
2017-11-26T19:56:01.704Z,8.35
2017-11-26T19:58:32.130Z,7.43
2017-11-26T20:01:01.463Z,8.65
2017-11-26T20:03:31.613Z,8.68
2017-11-26T20:06:00.788Z,8.93
2017-11-26T20:08:29.575Z,8.05
2017-11-26T20:10:59.633Z,7.95
2017-11-26T20:13:28.450Z,9.55
2017-11-26T20:15:57.332Z,9.40
2017-11-26T20:18:29.283Z,10.32
2017-11-26T20:20:58.626Z,8.18
2017-11-26T20:23:27.787Z,8.68
2017-11-26T20:25:58.151Z,8.00
2017-11-26T20:28:27.895Z,8.30
2017-11-26T20:30:56.713Z,9.32
2017-11-26T20:33:25.615Z,7.05
2017-11-26T20:35:54.685Z,8.70
2017-11-26T20:38:23.519Z,11.30
2017-11-26T20:40:52.540Z,8.27
2017-11-26T20:43:22.112Z,8.48
2017-11-26T20:45:50.878Z,8.77
2017-11-26T20:48:20.107Z,8.00
2017-11-26T20:50:49.746Z,7.47
2017-11-26T20:53:18.932Z,8.05
2017-11-26T20:55:47.967Z,8.02
2017-11-26T20:58:16.741Z,6.10
2017-11-26T21:00:45.321Z,6.97
2017-11-26T21:03:14.831Z,6.28
2017-11-26T21:05:43.682Z,7.00
2017-11-26T21:08:14.444Z,7.37
2017-11-26T21:10:43.796Z,6.82
2017-11-26T21:13:12.682Z,6.07
2017-11-26T21:15:42.548Z,6.85
2017-11-26T21:18:11.603Z,6.60
2017-11-26T21:20:41.934Z,5.90
2017-11-26T21:23:10.769Z,5.65
2017-11-26T21:25:39.678Z,7.05
2017-11-26T21:28:08.928Z,6.40
2017-11-26T21:30:37.725Z,6.15
2017-11-26T21:33:07.311Z,5.85
2017-11-26T21:35:37.209Z,5.20
2017-11-26T21:38:06.817Z,4.97
2017-11-26T21:40:36.763Z,6.22
2017-11-26T21:43:06.723Z,5.90
2017-11-26T21:45:35.620Z,5.10
2017-11-26T21:48:06.449Z,6.55
2017-11-26T21:50:36.442Z,5.85
2017-11-26T21:53:06.845Z,6.18
2017-11-26T21:55:35.790Z,5.70
2017-11-26T21:58:04.601Z,6.60
2017-11-26T22:00:34.146Z,5.93
2017-11-26T22:03:02.906Z,7.00
2017-11-26T22:05:31.905Z,7.20
2017-11-26T22:08:01.132Z,6.45
2017-11-26T22:10:30.879Z,5.80
2017-11-26T22:12:59.854Z,5.87
2017-11-26T22:15:29.304Z,7.37
2017-11-26T22:17:58.217Z,6.65
2017-11-26T22:20:27.602Z,7.57
2017-11-26T22:22:57.431Z,6.75
2017-11-26T22:25:25.894Z,7.50
2017-11-26T22:27:54.325Z,7.40
2017-11-26T22:30:22.945Z,7.70
2017-11-26T22:32:52.155Z,6.20
2017-11-26T22:35:21.456Z,6.43
2017-11-26T22:37:50.353Z,7.22
2017-11-26T22:40:19.114Z,6.60
2017-11-26T22:42:47.885Z,7.45
2017-11-26T22:45:16.508Z,6.87
2017-11-26T22:47:44.889Z,7.65
2017-11-26T22:50:13.426Z,6.72
2017-11-26T22:52:42.023Z,6.80
2017-11-26T22:55:10.449Z,6.68
2017-11-26T22:57:39.600Z,6.78
2017-11-26T23:00:08.017Z,7.62
2017-11-26T23:02:36.386Z,7.60
2017-11-26T23:05:04.752Z,6.85
2017-11-26T23:07:33.160Z,6.55
2017-11-26T23:10:02.300Z,7.47
2017-11-26T23:12:30.693Z,7.60
2017-11-26T23:14:59.091Z,5.95
2017-11-26T23:17:27.469Z,7.05
2017-11-26T23:19:55.838Z,6.22
2017-11-26T23:22:25.046Z,6.93
2017-11-26T23:24:53.423Z,7.43
2017-11-26T23:27:21.809Z,7.55
2017-11-26T23:29:50.266Z,8.93
2017-11-26T23:32:18.656Z,8.13
2017-11-26T23:34:47.114Z,8.90
2017-11-26T23:37:15.515Z,7.40
2017-11-26T23:39:43.892Z,7.82
2017-11-26T23:42:12.380Z,7.07
2017-11-26T23:44:40.792Z,8.40
2017-11-26T23:47:09.940Z,8.40
2017-11-26T23:49:38.327Z,7.62
2017-11-26T23:52:06.726Z,8.63
2017-11-26T23:54:35.100Z,8.45
2017-11-26T23:57:03.478Z,7.72
2017-11-26T23:59:31.880Z,7.80
